createdAt,value
2024-05-09T00:04:56.124Z,7.53
2024-05-09T00:09:59.853Z,7.53
2024-05-09T00:15:03.389Z,7.52
2024-05-09T00:20:14.449Z,7.47
2024-05-09T00:25:23.849Z,7.55
2024-05-09T00:30:33.665Z,7.43
2024-05-09T00:35:40.351Z,7.47
2024-05-09T00:40:44.113Z,7.42
2024-05-09T00:45:49.112Z,7.35
2024-05-09T00:50:54.570Z,7.30
2024-05-09T00:55:59.248Z,7.28
2024-05-09T01:01:04.194Z,7.22
2024-05-09T01:06:07.890Z,7.23
2024-05-09T01:11:11.592Z,7.22
2024-05-09T01:16:17.494Z,7.18
2024-05-09T01:21:21.072Z,7.15
2024-05-09T01:26:25.971Z,7.12
2024-05-09T01:31:29.769Z,7.10
2024-05-09T01:36:35.156Z,7.11
2024-05-09T01:41:38.921Z,7.06
2024-05-09T01:46:42.466Z,7.15
2024-05-09T01:51:46.515Z,7.20
2024-05-09T01:56:50.159Z,7.29
2024-05-09T02:01:56.979Z,7.38
2024-05-09T02:07:01.344Z,8.56
2024-05-09T02:12:05.358Z,9.70
2024-05-09T02:17:09.164Z,10.48
2024-05-09T02:22:12.838Z,11.26
2024-05-09T02:27:16.471Z,11.99
2024-05-09T02:32:20.163Z,12.23
2024-05-09T02:37:23.843Z,12.62
2024-05-09T02:42:27.500Z,13.34
2024-05-09T02:47:31.193Z,13.73
2024-05-09T02:52:34.742Z,14.27
2024-05-09T02:57:38.203Z,14.92
2024-05-09T03:02:47.402Z,15.12
2024-05-09T03:07:51.192Z,14.93
2024-05-09T03:12:54.775Z,15.53
2024-05-09T03:17:58.827Z,15.92
2024-05-09T03:23:02.700Z,16.68
2024-05-09T03:28:06.922Z,16.55
2024-05-09T03:33:11.635Z,17.20
2024-05-09T03:38:15.751Z,17.72
2024-05-09T03:43:20.312Z,17.68
2024-05-09T03:48:24.664Z,18.44
2024-05-09T03:53:28.665Z,19.61
2024-05-09T03:58:32.164Z,19.42
2024-05-09T04:03:35.908Z,19.37
2024-05-09T04:08:39.720Z,19.92
2024-05-09T04:13:43.940Z,21.21
2024-05-09T04:18:47.566Z,22.13
2024-05-09T04:23:50.842Z,23.06
2024-05-09T04:28:54.164Z,21.94
2024-05-09T04:33:57.860Z,22.20
2024-05-09T04:39:01.697Z,23.10
2024-05-09T04:44:05.454Z,23.97
2024-05-09T04:49:08.916Z,24.40
2024-05-09T04:54:25.771Z,24.65
2024-05-09T04:59:33.953Z,25.18
2024-05-09T05:04:37.513Z,26.02
2024-05-09T05:09:40.918Z,25.88
2024-05-09T05:14:44.281Z,26.62
2024-05-09T05:19:48.335Z,26.79
2024-05-09T05:24:51.842Z,27.07
2024-05-09T05:29:55.157Z,27.41
2024-05-09T05:34:58.615Z,28.06
2024-05-09T05:40:02.491Z,27.59
2024-05-09T05:45:09.896Z,28.41
2024-05-09T05:50:23.776Z,27.12
2024-05-09T05:55:33.328Z,27.05
2024-05-09T06:00:39.226Z,27.33
2024-05-09T06:05:46.450Z,27.81
2024-05-09T06:10:50.476Z,28.08
2024-05-09T06:15:53.864Z,27.52
2024-05-09T06:20:57.271Z,27.73
2024-05-09T06:26:00.847Z,27.47
2024-05-09T06:31:04.392Z,27.68
2024-05-09T06:36:08.434Z,28.93
2024-05-09T06:41:12.093Z,28.02
2024-05-09T06:46:17.863Z,26.40
2024-05-09T06:51:21.771Z,27.12
2024-05-09T06:56:25.305Z,28.42
2024-05-09T07:01:28.713Z,27.03
2024-05-09T07:06:32.206Z,26.49
2024-05-09T07:11:35.572Z,26.47
2024-05-09T07:16:39.099Z,24.79
2024-05-09T07:21:42.233Z,23.79
2024-05-09T07:26:45.985Z,23.91
2024-05-09T07:31:52.183Z,23.28
2024-05-09T07:36:56.058Z,25.53
2024-05-09T07:41:59.670Z,27.16
2024-05-09T07:48:14.168Z,27.14
2024-05-09T07:53:32.302Z,27.05
2024-05-09T07:57:50.066Z,28.71
2024-05-09T08:02:53.522Z,28.32
2024-05-09T08:08:06.336Z,27.06
2024-05-09T08:13:25.530Z,25.43
2024-05-09T08:18:29.290Z,26.74
2024-05-09T08:23:33.078Z,27.52
2024-05-09T08:28:36.452Z,28.07
2024-05-09T08:33:49.654Z,28.60
2024-05-09T08:38:53.333Z,28.98
2024-05-09T08:43:56.881Z,28.91
2024-05-09T08:49:06.025Z,27.80
2024-05-09T08:54:09.571Z,27.93
2024-05-09T08:59:21.551Z,28.38
2024-05-09T09:04:25.873Z,28.84
2024-05-09T09:09:30.285Z,29.08
2024-05-09T09:14:36.495Z,29.24
2024-05-09T09:19:40.981Z,29.66
2024-05-09T09:24:44.891Z,29.47
2024-05-09T09:29:51.821Z,29.87
2024-05-09T09:34:55.330Z,29.30
2024-05-09T09:40:00.103Z,29.48
2024-05-09T09:45:05.689Z,28.39
2024-05-09T09:50:14.451Z,28.27
2024-05-09T09:55:22.576Z,28.51
2024-05-09T10:00:33.036Z,29.08
2024-05-09T10:05:44.052Z,28.44
2024-05-09T10:10:52.571Z,28.06
2024-05-09T10:15:56.251Z,27.24
2024-05-09T10:21:00.310Z,27.08
2024-05-09T10:26:07.035Z,26.77
2024-05-09T10:31:12.340Z,26.15
2024-05-09T10:36:20.249Z,26.18
2024-05-09T10:41:24.215Z,25.81
2024-05-09T10:46:27.876Z,25.28
2024-05-09T10:51:34.603Z,24.43
2024-05-09T10:56:38.197Z,23.40
2024-05-09T11:01:41.869Z,22.76
2024-05-09T11:06:47.291Z,21.77
2024-05-09T11:11:51.151Z,20.95
2024-05-09T11:17:00.961Z,19.95
2024-05-09T11:22:04.803Z,19.60
2024-05-09T11:27:08.286Z,19.34
2024-05-09T11:32:14.383Z,19.52
2024-05-09T11:37:18.195Z,19.44
2024-05-09T11:42:23.074Z,18.97
2024-05-09T11:47:27.063Z,18.76
2024-05-09T11:52:30.619Z,18.60
2024-05-09T11:57:34.252Z,18.48
2024-05-09T12:02:37.960Z,18.33
2024-05-09T12:07:43.943Z,18.21
2024-05-09T12:12:47.492Z,18.09
2024-05-09T12:17:51.333Z,17.92
2024-05-09T12:22:54.555Z,17.70
2024-05-09T12:27:57.966Z,17.39
2024-05-09T12:33:01.658Z,17.33
2024-05-09T12:38:05.558Z,17.08
2024-05-09T12:43:10.283Z,16.72
2024-05-09T12:48:15.214Z,16.68
2024-05-09T12:53:19.166Z,16.40
2024-05-09T12:58:22.959Z,16.32
2024-05-09T13:03:26.533Z,16.11
2024-05-09T13:08:30.168Z,15.99
2024-05-09T13:13:33.641Z,15.94
2024-05-09T13:18:37.402Z,15.75
2024-05-09T13:23:41.123Z,15.58
2024-05-09T13:28:44.705Z,15.44
2024-05-09T13:33:48.708Z,15.38
2024-05-09T13:38:52.690Z,15.22
2024-05-09T13:43:56.131Z,15.04
2024-05-09T13:48:59.820Z,14.89
2024-05-09T13:54:03.613Z,14.83
2024-05-09T13:59:07.745Z,14.61
2024-05-09T14:04:14.288Z,14.41
2024-05-09T14:09:18.049Z,14.19
2024-05-09T14:14:21.580Z,13.99
2024-05-09T14:19:25.279Z,13.95
2024-05-09T14:24:28.891Z,13.85
2024-05-09T14:29:35.774Z,13.73
2024-05-09T14:34:39.509Z,13.64
2024-05-09T14:39:46.078Z,13.46
2024-05-09T14:44:49.556Z,13.29
2024-05-09T14:49:53.354Z,13.12
2024-05-09T14:55:00.356Z,13.09
2024-05-09T15:00:09.113Z,12.90
2024-05-09T15:05:17.849Z,12.71
2024-05-09T15:10:27.531Z,12.61
2024-05-09T15:15:38.113Z,12.44
2024-05-09T15:20:43.758Z,12.26
2024-05-09T15:25:47.432Z,12.14
2024-05-09T15:30:52.191Z,12.01
2024-05-09T15:35:56.496Z,11.92
2024-05-09T15:41:00.353Z,11.78
2024-05-09T15:46:04.159Z,11.70
2024-05-09T15:51:08.377Z,11.62
2024-05-09T15:56:12.424Z,11.43
2024-05-09T16:01:16.107Z,11.30
2024-05-09T16:06:19.868Z,11.16
2024-05-09T16:11:24.110Z,10.98
2024-05-09T16:16:28.079Z,10.83
2024-05-09T16:21:31.819Z,10.74
2024-05-09T16:26:35.616Z,10.57
2024-05-09T16:31:39.223Z,10.40
2024-05-09T16:36:44.349Z,10.24
2024-05-09T16:41:48.551Z,10.11
2024-05-09T16:46:52.169Z,10.04
2024-05-09T16:51:56.139Z,9.83
2024-05-09T16:57:00.038Z,9.76
2024-05-09T17:02:04.078Z,9.72
2024-05-09T17:07:07.916Z,9.74
2024-05-09T17:12:11.734Z,9.66
2024-05-09T17:17:15.897Z,9.66
2024-05-09T17:22:20.724Z,9.68
2024-05-09T17:27:43.063Z,9.73
2024-05-09T17:32:46.802Z,9.69
2024-05-09T17:37:50.613Z,9.65
2024-05-09T17:42:55.294Z,9.53
2024-05-09T17:47:59.446Z,9.56
2024-05-09T17:53:03.447Z,9.46
2024-05-09T17:58:07.305Z,9.54
2024-05-09T18:03:12.655Z,9.52
2024-05-09T18:08:17.139Z,9.39
2024-05-09T18:13:20.692Z,9.34
2024-05-09T18:18:24.437Z,9.27
2024-05-09T18:23:28.127Z,9.21
2024-05-09T18:28:50.892Z,9.14
2024-05-09T18:33:54.870Z,8.95
2024-05-09T18:38:58.635Z,8.86
2024-05-09T18:44:02.442Z,8.74
2024-05-09T18:49:06.626Z,8.68
2024-05-09T18:54:10.414Z,8.66
2024-05-09T18:59:14.213Z,8.61
2024-05-09T19:04:19.248Z,8.57
2024-05-09T19:09:23.141Z,8.48
2024-05-09T19:14:26.870Z,8.52
2024-05-09T19:19:30.543Z,8.32
2024-05-09T19:24:34.497Z,8.16
2024-05-09T19:29:38.135Z,8.14
2024-05-09T19:34:41.718Z,8.10
2024-05-09T19:44:48.987Z,8.02
2024-05-09T19:49:52.631Z,7.98
2024-05-09T19:54:56.283Z,7.91
2024-05-09T19:59:59.961Z,7.81
2024-05-09T20:05:04.197Z,7.67
2024-05-09T20:10:16.463Z,7.59
2024-05-09T20:15:24.302Z,7.50
2024-05-09T20:20:35.952Z,7.46
2024-05-09T20:25:43.686Z,7.34
2024-05-09T20:30:47.622Z,7.27
2024-05-09T20:35:52.636Z,7.24
2024-05-09T20:40:57.432Z,7.21
2024-05-09T20:46:01.678Z,7.03
2024-05-09T20:51:05.506Z,7.02
2024-05-09T20:56:09.357Z,7.01
2024-05-09T21:01:13.045Z,6.96
2024-05-09T21:06:16.936Z,6.93
2024-05-09T21:11:23.331Z,6.75
2024-05-09T21:16:27.227Z,6.74
2024-05-09T21:21:30.935Z,6.74
2024-05-09T21:26:34.852Z,6.63
2024-05-09T21:31:41.344Z,6.50
2024-05-09T21:36:46.638Z,6.39
2024-05-09T21:41:50.356Z,6.26
2024-05-09T21:46:54.528Z,6.18
2024-05-09T21:51:58.154Z,6.10
2024-05-09T21:57:01.654Z,6.15
2024-05-09T22:02:05.548Z,6.02
2024-05-09T22:07:09.731Z,6.00
2024-05-09T22:12:16.064Z,6.14
2024-05-09T22:17:20.028Z,6.09
2024-05-09T22:22:23.794Z,6.06
2024-05-09T22:27:27.334Z,5.93
2024-05-09T22:32:31.157Z,5.89
2024-05-09T22:37:35.231Z,5.82
2024-05-09T22:42:43.671Z,5.77
2024-05-09T22:47:47.448Z,5.82
2024-05-09T22:52:51.016Z,5.77
2024-05-09T22:57:54.669Z,5.77
2024-05-09T23:02:58.712Z,5.74
2024-05-09T23:08:03.298Z,5.74
2024-05-09T23:13:08.263Z,5.60
2024-05-09T23:18:14.564Z,5.60
2024-05-09T23:23:18.433Z,5.73
2024-05-09T23:28:22.318Z,5.77
2024-05-09T23:33:27.056Z,5.66
2024-05-09T23:38:30.651Z,5.59
2024-05-09T23:43:36.800Z,5.49
2024-05-09T23:48:40.462Z,5.44
2024-05-09T23:53:47.444Z,5.32
2024-05-09T23:58:51.080Z,5.36
